Time;durP1;ratioP1;P1;durP2;ratioP2;P2;SDS_P1;SDS_P2;PMS_P1;PMS_P2;Temp;Humidity;BMP_temperature;BMP_pressure;BME280_temperature;BME280_humidity;BME280_pressure;Samples;Min_cycle;Max_cycle;Signal;HPM_P1;HPM_P2
2021/12/17 00:01:09;;;;;;;138.13;36.88;;;8.40;99.90;;;;;;5116928;27;20039;-71
2021/12/17 00:03:43;;;;;;;96.60;33.92;;;8.40;99.90;;;;;;5124498;27;20078;-71
2021/12/17 00:08:40;;;;;;;135.48;36.20;;;8.40;99.90;;;;;;5116299;27;20730;-72
2021/12/17 00:11:06;;;;;;;92.93;33.10;;;8.40;99.90;;;;;;5121458;27;20386;-71
2021/12/17 00:13:33;;;;;;;156.40;36.30;;;8.40;99.90;;;;;;5111608;27;20100;-71
2021/12/17 00:16:00;;;;;;;89.57;33.75;;;8.40;99.90;;;;;;5113197;27;20051;-72
2021/12/17 00:18:34;;;;;;;117.15;35.15;;;8.40;99.90;;;;;;5115330;27;20075;-72
2021/12/17 00:40:29;;;;;;;109.80;35.53;;;8.40;99.90;;;;;;5112978;27;20043;-72
2021/12/17 00:48:37;;;;;;;102.15;34.08;;;8.40;99.90;;;;;;5107342;27;20063;-72
2021/12/17 00:53:47;;;;;;;71.60;27.48;;;8.40;99.90;;;;;;5116827;27;20134;-72
2021/12/17 00:56:13;;;;;;;65.40;25.58;;;8.40;99.90;;;;;;5116146;27;20106;-72
2021/12/17 00:58:38;;;;;;;66.50;24.55;;;8.40;99.90;;;;;;5111462;27;20394;-72
2021/12/17 01:01:04;;;;;;;60.88;23.88;;;8.40;99.90;;;;;;5115983;27;20040;-72
2021/12/17 01:03:29;;;;;;;57.80;23.88;;;8.40;99.90;;;;;;5113403;27;20547;-71
2021/12/17 01:05:55;;;;;;;56.58;21.83;;;8.40;99.90;;;;;;5124947;27;20533;-72
2021/12/17 01:08:21;;;;;;;39.90;18.98;;;8.40;99.90;;;;;;5122732;27;20078;-72
2021/12/17 01:10:53;;;;;;;40.22;18.48;;;8.40;99.90;;;;;;5126143;27;20050;-71
2021/12/17 01:13:20;;;;;;;33.85;17.20;;;8.40;99.90;;;;;;5123299;27;20508;-72
2021/12/17 01:15:46;;;;;;;28.15;15.02;;;8.40;99.90;;;;;;5122783;27;20046;-72
2021/12/17 01:18:17;;;;;;;24.90;13.48;;;8.40;99.90;;;;;;5119858;27;20044;-72
2021/12/17 01:36:20;;;;;;;29.65;16.83;;;8.40;99.90;;;;;;5125745;27;20234;-72
2021/12/17 01:42:04;;;;;;;38.95;19.13;;;8.40;99.90;;;;;;5124483;27;20497;-72
2021/12/17 01:44:10;;;;;;;36.13;18.50;;;8.40;99.90;;;;;;5108231;27;20494;-71
2021/12/17 01:46:38;;;;;;;43.60;20.20;;;8.40;99.90;;;;;;5118132;27;20039;-72
2021/12/17 02:00:05;;;;;;;33.13;16.02;;;8.40;99.90;;;;;;5124419;27;20051;-72
2021/12/17 02:02:38;;;;;;;33.00;15.00;;;8.40;99.90;;;;;;5125018;27;20519;-72
2021/12/17 02:05:04;;;;;;;37.03;17.27;;;8.40;99.90;;;;;;5125106;27;20031;-72
2021/12/17 02:07:29;;;;;;;31.15;14.82;;;8.40;99.90;;;;;;5109330;27;20096;-71
2021/12/17 02:21:15;;;;;;;27.17;12.73;;;8.40;99.90;;;;;;5116681;27;20047;-71
2021/12/17 02:32:00;;;;;;;30.90;13.55;;;8.40;99.90;;;;;;5126164;27;20079;-72
2021/12/17 02:35:02;;;;;;;29.58;13.05;;;8.40;99.90;;;;;;5116571;27;20571;-72
2021/12/17 02:37:30;;;;;;;32.38;13.50;;;8.40;99.90;;;;;;5120287;27;20039;-71
2021/12/17 02:47:38;;;;;;;30.70;12.30;;;8.40;99.90;;;;;;5120401;27;20051;-72
2021/12/17 02:50:06;;;;;;;27.70;12.57;;;8.40;99.90;;;;;;5114663;27;20052;-71
2021/12/17 02:52:35;;;;;;;28.85;11.93;;;8.40;99.90;;;;;;5115846;27;20086;-72
2021/12/17 02:55:02;;;;;;;27.85;12.43;;;8.40;99.90;;;;;;5120638;27;20047;-72
2021/12/17 02:57:28;;;;;;;27.08;12.35;;;8.40;99.90;;;;;;5114281;27;20055;-72
2021/12/17 02:59:54;;;;;;;30.15;12.77;;;8.40;99.90;;;;;;5134486;27;20055;-72
2021/12/17 03:02:24;;;;;;;30.30;12.60;;;8.40;99.90;;;;;;5108797;27;20050;-72
2021/12/17 03:04:50;;;;;;;28.65;13.15;;;8.40;99.90;;;;;;5113825;27;20160;-71
2021/12/17 03:07:16;;;;;;;26.55;12.25;;;8.40;99.90;;;;;;5125556;27;20035;-72
2021/12/17 03:12:23;;;;;;;25.25;12.50;;;8.50;99.90;;;;;;5113227;27;20047;-72
2021/12/17 03:14:57;;;;;;;29.50;13.80;;;8.50;99.90;;;;;;5110057;27;20097;-72
2021/12/17 03:25:40;;;;;;;30.42;14.18;;;8.40;99.90;;;;;;5112499;27;20083;-72
2021/12/17 03:28:06;;;;;;;34.40;14.77;;;8.40;99.90;;;;;;5110695;27;20085;-72
2021/12/17 03:30:31;;;;;;;43.90;15.50;;;8.40;99.90;;;;;;5132428;27;20043;-72
2021/12/17 03:32:57;;;;;;;34.33;14.98;;;8.40;99.90;;;;;;5116091;27;20151;-72
2021/12/17 03:35:22;;;;;;;29.50;14.10;;;8.40;99.90;;;;;;5125486;27;20043;-72
2021/12/17 03:37:48;;;;;;;30.30;14.07;;;8.40;99.90;;;;;;5108730;27;20577;-72
2021/12/17 03:40:16;;;;;;;32.63;14.75;;;8.40;99.90;;;;;;5128637;27;20122;-72
2021/12/17 03:42:47;;;;;;;36.25;14.68;;;8.50;99.90;;;;;;5115307;27;20115;-72
2021/12/17 03:45:14;;;;;;;36.42;15.73;;;8.40;99.90;;;;;;5108662;27;20044;-72
2021/12/17 03:47:39;;;;;;;31.35;14.25;;;8.40;99.90;;;;;;5155586;27;20480;-71
2021/12/17 03:50:06;;;;;;;45.20;16.42;;;8.40;99.90;;;;;;5111997;27;20507;-71
2021/12/17 03:52:31;;;;;;;37.97;14.82;;;8.40;99.90;;;;;;5121498;27;20546;-72
2021/12/17 03:54:58;;;;;;;32.15;14.82;;;8.40;99.90;;;;;;5112469;27;20134;-72
2021/12/17 03:57:24;;;;;;;31.83;15.27;;;8.40;99.90;;;;;;5153264;27;20497;-72
2021/12/17 03:59:50;;;;;;;34.65;14.88;;;8.50;99.90;;;;;;5114945;27;20044;-72
2021/12/17 04:02:16;;;;;;;39.88;15.90;;;8.40;99.90;;;;;;5114190;27;20478;-72
2021/12/17 04:04:43;;;;;;;28.58;14.82;;;8.50;99.90;;;;;;5114429;27;20079;-72
2021/12/17 04:07:08;;;;;;;35.20;15.65;;;8.40;99.90;;;;;;5124702;27;20040;-72
2021/12/17 04:09:34;;;;;;;38.95;15.65;;;8.40;99.90;;;;;;5109612;27;20100;-72
2021/12/17 04:12:06;;;;;;;35.42;16.27;;;8.40;99.90;;;;;;5111860;27;20039;-72
2021/12/17 04:14:35;;;;;;;39.05;16.33;;;8.40;99.90;;;;;;5125077;27;20747;-72
2021/12/17 04:17:05;;;;;;;34.38;15.93;;;8.40;99.90;;;;;;5123738;27;20051;-72
2021/12/17 04:19:31;;;;;;;34.67;15.40;;;8.40;99.90;;;;;;5108089;27;20131;-71
2021/12/17 04:21:57;;;;;;;37.33;16.52;;;8.40;99.90;;;;;;5121265;27;20111;-72
2021/12/17 04:24:23;;;;;;;43.17;17.00;;;8.40;99.90;;;;;;5125270;27;20054;-71
2021/12/17 04:26:48;;;;;;;43.03;16.83;;;8.40;99.90;;;;;;5120914;27;20047;-72
2021/12/17 04:29:15;;;;;;;40.88;16.33;;;8.40;99.90;;;;;;5139061;27;20067;-71
2021/12/17 04:31:41;;;;;;;40.33;16.52;;;8.40;99.90;;;;;;5115627;27;20031;-72
2021/12/17 04:34:08;;;;;;;38.30;17.25;;;8.40;99.90;;;;;;5118945;27;20096;-71
2021/12/17 04:36:36;;;;;;;37.80;16.35;;;8.40;99.90;;;;;;5121173;27;20114;-71
2021/12/17 04:39:01;;;;;;;;;;;8.40;99.90;;;;;;5110551;27;20051;-71
2021/12/17 04:44:20;;;;;;;32.33;16.05;;;8.40;99.90;;;;;;5124201;27;20043;-71
2021/12/17 04:46:55;;;;;;;45.00;16.98;;;8.40;99.90;;;;;;5120609;27;20043;-71
2021/12/17 04:57:52;;;;;;;36.30;16.48;;;8.40;99.90;;;;;;5130231;27;20059;-71
2021/12/17 05:00:29;;;;;;;33.05;16.10;;;8.40;99.90;;;;;;5119038;27;20169;-71
2021/12/17 05:02:57;;;;;;;37.97;17.33;;;8.40;99.90;;;;;;5117972;27;20043;-71
2021/12/17 05:05:30;;;;;;;35.88;16.42;;;8.40;99.90;;;;;;5115483;27;20062;-71
2021/12/17 05:08:04;;;;;;;38.22;17.35;;;8.40;99.90;;;;;;5124200;27;20122;-71
2021/12/17 05:18:39;;;;;;;43.22;16.85;;;8.40;99.90;;;;;;5109044;28;20055;-71
2021/12/17 05:21:07;;;;;;;37.75;16.75;;;8.40;99.90;;;;;;5108569;27;20406;-72
2021/12/17 05:23:39;;;;;;;42.17;17.30;;;8.40;99.90;;;;;;5112561;27;20050;-71
2021/12/17 05:26:08;;;;;;;37.72;16.73;;;8.40;99.90;;;;;;5112919;27;20043;-71
2021/12/17 05:28:34;;;;;;;35.63;16.65;;;8.40;99.90;;;;;;5113026;27;20138;-71
2021/12/17 05:31:00;;;;;;;34.40;16.13;;;8.40;99.90;;;;;;5113292;27;20100;-71
2021/12/17 05:33:27;;;;;;;42.92;17.25;;;8.40;99.90;;;;;;5122040;27;20389;-72
2021/12/17 05:35:53;;;;;;;36.70;16.25;;;8.40;99.90;;;;;;5121622;27;20155;-71
2021/12/17 05:38:21;;;;;;;37.25;16.90;;;8.40;99.90;;;;;;5120900;27;20474;-70
2021/12/17 05:40:47;;;;;;;35.75;16.00;;;8.40;99.90;;;;;;5123498;27;20043;-71
2021/12/17 05:43:14;;;;;;;37.70;16.15;;;8.40;99.90;;;;;;5123475;27;20521;-71
2021/12/17 05:48:23;;;;;;;38.08;16.92;;;8.40;99.90;;;;;;5115637;27;20051;-72
2021/12/17 05:50:51;;;;;;;33.67;15.60;;;8.40;99.90;;;;;;5123565;27;20051;-71
2021/12/17 05:53:17;;;;;;;45.83;17.42;;;8.40;99.90;;;;;;5124026;27;20657;-71
2021/12/17 05:55:43;;;;;;;30.75;14.98;;;8.40;99.90;;;;;;5119956;27;20122;-71
2021/12/17 05:58:10;;;;;;;39.65;16.00;;;8.40;99.90;;;;;;5112981;27;20146;-71
2021/12/17 06:00:38;;;;;;;39.30;16.45;;;8.40;99.90;;;;;;5139553;27;20082;-72
2021/12/17 06:03:04;;;;;;;36.40;17.08;;;8.40;99.90;;;;;;5119731;27;20075;-71
2021/12/17 06:05:30;;;;;;;37.95;16.77;;;8.40;99.90;;;;;;5116489;27;20527;-71
2021/12/17 06:07:55;;;;;;;51.95;18.65;;;8.40;99.90;;;;;;5112522;27;20058;-71
2021/12/17 06:10:22;;;;;;;36.50;16.50;;;8.40;99.90;;;;;;5119096;27;20039;-71
2021/12/17 06:12:48;;;;;;;40.67;17.85;;;8.40;99.90;;;;;;5106726;27;20044;-71
2021/12/17 06:15:16;;;;;;;41.00;16.85;;;8.40;99.90;;;;;;5155706;27;20093;-71
2021/12/17 06:17:42;;;;;;;36.40;16.55;;;8.40;99.90;;;;;;5109304;27;20042;-71
2021/12/17 06:20:10;;;;;;;36.78;16.63;;;8.40;99.90;;;;;;5119120;27;20550;-71
2021/12/17 06:22:36;;;;;;;38.35;17.30;;;8.40;99.90;;;;;;5117947;27;20035;-71
2021/12/17 06:25:03;;;;;;;38.78;16.55;;;8.40;99.90;;;;;;5127286;27;20785;-71
2021/12/17 06:27:29;;;;;;;41.15;17.08;;;8.40;99.90;;;;;;5127609;27;20071;-71
2021/12/17 06:29:55;;;;;;;40.50;17.00;;;8.40;99.90;;;;;;5109599;27;20292;-71
2021/12/17 06:32:21;;;;;;;35.05;15.05;;;8.40;99.90;;;;;;5110424;27;20059;-71
2021/12/17 06:34:48;;;;;;;37.13;15.75;;;8.40;99.90;;;;;;5155512;27;20047;-72
2021/12/17 06:37:15;;;;;;;34.70;14.95;;;8.40;99.90;;;;;;5123968;27;20092;-71
2021/12/17 06:39:41;;;;;;;30.38;15.10;;;8.40;99.90;;;;;;5119169;27;20039;-72
2021/12/17 06:42:07;;;;;;;30.95;15.05;;;8.30;99.90;;;;;;5117662;27;20043;-71
2021/12/17 06:44:33;;;;;;;30.58;14.60;;;8.30;99.90;;;;;;5125438;27;20045;-71
2021/12/17 06:47:05;;;;;;;37.90;15.75;;;8.40;99.90;;;;;;5111165;27;20042;-71
2021/12/17 06:55:02;;;;;;;30.17;14.93;;;8.30;99.90;;;;;;5119801;27;20055;-71
2021/12/17 07:20:51;;;;;;;31.15;14.48;;;8.30;99.90;;;;;;5110181;27;20044;-71
2021/12/17 07:28:02;;;;;;;31.17;14.18;;;8.30;99.90;;;;;;5121331;27;20130;-71
2021/12/17 07:32:52;;;;;;;43.22;15.88;;;8.30;99.90;;;;;;5117597;27;20090;-71
2021/12/17 07:40:49;;;;;;;33.65;15.10;;;8.30;99.90;;;;;;5045228;28;20053;-71
2021/12/17 07:43:24;;;;;;;33.47;14.85;;;8.30;99.90;;;;;;5099909;27;20052;-71
2021/12/17 07:45:50;;;;;;;32.38;15.30;;;8.30;99.90;;;;;;5109553;27;20043;-71
2021/12/17 07:48:16;;;;;;;32.47;14.75;;;8.30;99.90;;;;;;5121526;27;20035;-71
2021/12/17 07:50:42;;;;;;;29.05;14.95;;;8.30;99.90;;;;;;5120388;27;20683;-71
2021/12/17 07:53:07;;;;;;;30.73;14.55;;;8.30;99.90;;;;;;5125609;27;20043;-71
2021/12/17 07:55:33;;;;;;;28.30;14.73;;;8.30;99.90;;;;;;5110698;27;20040;-71
2021/12/17 07:57:59;;;;;;;30.75;14.52;;;8.30;99.90;;;;;;5111019;27;20039;-71
2021/12/17 08:00:25;;;;;;;27.65;14.02;;;8.30;99.90;;;;;;5113594;27;20130;-71
2021/12/17 08:02:50;;;;;;;31.50;14.85;;;8.30;99.90;;;;;;5120203;27;20356;-71
2021/12/17 08:05:18;;;;;;;33.15;14.70;;;8.30;99.90;;;;;;5106200;27;20130;-71
2021/12/17 08:07:44;;;;;;;29.77;15.23;;;8.30;99.90;;;;;;5111925;27;20478;-71
2021/12/17 08:10:10;;;;;;;29.08;14.70;;;8.30;99.90;;;;;;5112146;27;20123;-71
2021/12/17 08:12:36;;;;;;;30.15;14.85;;;8.30;99.90;;;;;;5118654;27;20048;-71
2021/12/17 08:15:04;;;;;;;32.43;15.37;;;8.30;99.90;;;;;;5129928;27;20043;-71
2021/12/17 08:25:47;;;;;;;32.22;15.60;;;8.30;99.90;;;;;;5118304;27;20052;-71
2021/12/17 08:28:15;;;;;;;28.42;14.85;;;8.40;99.90;;;;;;5119966;27;20558;-71
2021/12/17 08:30:41;;;;;;;31.27;17.08;;;8.40;99.90;;;;;;5120032;27;20490;-71
2021/12/17 08:33:07;;;;;;;50.78;40.35;;;8.40;99.90;;;;;;5119149;27;20055;-71
2021/12/17 08:35:35;;;;;;;47.78;35.55;;;8.40;99.90;;;;;;5116017;27;20051;-70
2021/12/17 08:38:04;;;;;;;33.55;21.58;;;8.40;99.90;;;;;;5106527;27;20500;-71
2021/12/17 08:40:31;;;;;;;32.13;19.73;;;8.40;99.90;;;;;;5108473;27;20082;-73
2021/12/17 08:42:57;;;;;;;38.20;22.02;;;8.40;99.90;;;;;;5121029;27;20083;-73
2021/12/17 08:45:22;;;;;;;38.30;27.83;;;8.40;99.90;;;;;;5106787;27;20044;-72
2021/12/17 08:47:50;;;;;;;29.70;17.52;;;8.40;99.90;;;;;;5121877;27;20055;-72
2021/12/17 08:50:15;;;;;;;34.60;21.65;;;8.40;99.90;;;;;;5126499;27;20055;-72
2021/12/17 08:52:41;;;;;;;41.92;25.30;;;8.40;99.90;;;;;;5122374;27;20424;-73
2021/12/17 08:55:10;;;;;;;32.42;18.10;;;8.40;99.90;;;;;;5109446;27;20044;-73
2021/12/17 08:57:36;;;;;;;27.00;15.68;;;8.40;99.90;;;;;;5140266;27;20043;-73
2021/12/17 09:00:06;;;;;;;33.17;17.00;;;8.40;99.90;;;;;;5113414;28;20431;-73
2021/12/17 09:02:34;;;;;;;29.63;15.68;;;8.50;99.90;;;;;;5106661;27;20431;-72
2021/12/17 09:05:00;;;;;;;27.65;15.25;;;8.50;99.90;;;;;;5111790;28;20100;-73
2021/12/17 09:07:26;;;;;;;28.48;16.90;;;8.50;99.90;;;;;;5105891;28;20043;-73
2021/12/17 09:09:51;;;;;;;29.52;17.00;;;8.50;99.90;;;;;;5113172;28;20375;-72
2021/12/17 09:12:17;;;;;;;31.17;16.70;;;8.50;99.90;;;;;;5106234;28;20127;-72
2021/12/17 09:14:42;;;;;;;27.25;15.23;;;8.50;99.90;;;;;;5106206;28;20217;-73
2021/12/17 09:17:08;;;;;;;33.03;17.20;;;8.50;99.90;;;;;;5122375;28;20080;-72
2021/12/17 09:19:34;;;;;;;29.42;16.33;;;8.60;99.90;;;;;;5107636;28;20047;-72
2021/12/17 09:22:01;;;;;;;27.52;14.93;;;8.60;99.90;;;;;;5120064;28;20051;-71
2021/12/17 09:24:26;;;;;;;28.15;16.08;;;8.60;99.90;;;;;;5106026;28;20040;-72
2021/12/17 09:26:53;;;;;;;28.33;15.82;;;8.60;99.90;;;;;;5146259;27;20038;-72
2021/12/17 09:29:19;;;;;;;26.25;15.60;;;8.60;99.90;;;;;;5143837;27;20078;-72
2021/12/17 09:31:45;;;;;;;28.08;16.13;;;8.60;99.90;;;;;;5115325;28;20534;-71
2021/12/17 09:34:10;;;;;;;30.92;15.55;;;8.60;99.90;;;;;;5106266;28;20050;-72
2021/12/17 09:36:36;;;;;;;31.65;15.73;;;8.60;99.90;;;;;;5105957;28;20491;-71
2021/12/17 09:39:03;;;;;;;28.63;15.50;;;8.70;99.90;;;;;;5110216;28;20027;-72
2021/12/17 09:41:28;;;;;;;32.37;16.63;;;8.70;99.90;;;;;;5105368;28;20478;-71
2021/12/17 09:43:54;;;;;;;27.83;16.35;;;8.70;99.90;;;;;;5121693;27;20046;-71
2021/12/17 09:46:21;;;;;;;29.25;16.20;;;8.70;99.90;;;;;;5106604;28;20039;-71
2021/12/17 09:48:48;;;;;;;27.83;16.80;;;8.70;99.90;;;;;;5115310;28;20086;-74
2021/12/17 09:51:17;;;;;;;28.40;15.73;;;8.70;99.90;;;;;;5124222;27;20043;-73
2021/12/17 09:53:43;;;;;;;29.95;16.65;;;8.70;99.90;;;;;;5116608;27;20043;-72
2021/12/17 09:56:09;;;;;;;28.90;17.02;;;8.70;99.90;;;;;;5109399;28;20130;-72
2021/12/17 09:58:34;;;;;;;31.80;16.63;;;8.70;99.90;;;;;;5129460;27;20123;-73
2021/12/17 10:01:00;;;;;;;27.35;16.08;;;8.80;99.90;;;;;;5129094;27;20480;-71
2021/12/17 10:03:27;;;;;;;28.63;16.40;;;8.70;99.90;;;;;;5128620;27;20489;-72
2021/12/17 10:05:53;;;;;;;28.50;15.50;;;8.80;99.90;;;;;;5127635;27;20145;-72
2021/12/17 10:08:21;;;;;;;30.73;16.98;;;8.80;99.90;;;;;;5129865;27;20043;-72
2021/12/17 10:10:58;;;;;;;27.73;17.58;;;8.80;99.90;;;;;;5110100;27;20092;-72
2021/12/17 10:13:31;;;;;;;30.48;19.00;;;8.80;99.90;;;;;;5144961;27;20125;-78
2021/12/17 10:16:06;;;;;;;33.53;20.58;;;8.80;99.90;;;;;;5126768;27;20067;-74
2021/12/17 10:18:37;;;;;;;34.70;20.70;;;8.80;99.90;;;;;;5118706;27;20417;-75
2021/12/17 10:21:08;;;;;;;32.67;20.25;;;8.80;99.90;;;;;;5116788;27;20405;-73
2021/12/17 10:23:36;;;;;;;35.05;20.50;;;8.90;99.90;;;;;;5123208;27;20056;-75
2021/12/17 10:26:02;;;;;;;31.65;20.02;;;8.90;99.90;;;;;;5151701;27;20054;-75
2021/12/17 10:28:30;;;;;;;34.22;20.77;;;8.90;99.90;;;;;;5115809;27;20048;-74
2021/12/17 10:30:56;;;;;;;32.75;22.15;;;8.90;99.90;;;;;;5119309;27;20045;-75
2021/12/17 10:33:25;;;;;;;35.17;22.10;;;8.90;99.90;;;;;;5113284;27;20078;-75
2021/12/17 10:35:53;;;;;;;31.85;20.35;;;9.00;99.90;;;;;;5118109;27;20075;-76
2021/12/17 10:38:25;;;;;;;34.03;19.33;;;9.00;99.90;;;;;;5149775;27;20054;-77
2021/12/17 10:40:58;;;;;;;29.98;19.15;;;9.00;99.90;;;;;;5120426;27;20047;-70
2021/12/17 10:43:31;;;;;;;34.58;22.15;;;9.00;99.90;;;;;;5113867;27;20130;-70
2021/12/17 10:46:22;;;;;;;30.67;19.42;;;9.00;99.90;;;;;;5124779;27;20062;-75
2021/12/17 10:49:01;;;;;;;29.00;18.85;;;9.00;99.90;;;;;;5126015;27;20047;-71
2021/12/17 10:54:20;;;;;;;32.35;20.10;;;9.10;99.90;;;;;;5126953;27;20047;-72
2021/12/17 10:56:53;;;;;;;31.23;19.00;;;9.10;99.90;;;;;;5127800;27;20501;-72
2021/12/17 10:59:22;;;;;;;31.17;19.00;;;9.10;99.90;;;;;;5108981;28;20720;-72
2021/12/17 11:01:55;;;;;;;32.47;21.35;;;9.10;99.90;;;;;;5111120;27;20039;-74
2021/12/17 11:04:32;;;;;;;36.65;23.33;;;9.10;99.90;;;;;;5145553;27;20114;-74
2021/12/17 11:07:05;;;;;;;42.70;30.27;;;9.20;99.90;;;;;;5116921;27;20039;-74
2021/12/17 11:09:46;;;;;;;30.40;19.98;;;9.20;99.90;;;;;;5110563;27;20039;-74
2021/12/17 11:12:17;;;;;;;34.78;22.02;;;9.20;99.90;;;;;;5144540;27;20044;-73
2021/12/17 11:14:44;;;;;;;32.92;19.85;;;9.20;99.90;;;;;;5143140;27;20051;-73
2021/12/17 11:17:10;;;;;;;;;;;9.20;99.90;;;;;;5110434;27;20047;-71
2021/12/17 11:19:36;;;;;;;28.63;17.23;;;9.20;99.90;;;;;;5120772;27;19923;-72
2021/12/17 11:22:02;;;;;;;28.38;16.92;;;9.20;99.90;;;;;;5107390;28;20055;-73
2021/12/17 11:24:30;;;;;;;25.63;16.63;;;9.20;99.90;;;;;;5109402;27;20181;-73
2021/12/17 11:26:56;;;;;;;27.67;17.67;;;9.30;99.90;;;;;;5108850;28;20055;-74
2021/12/17 11:29:23;;;;;;;27.42;18.23;;;9.20;99.90;;;;;;5116434;27;20039;-74
2021/12/17 11:31:51;;;;;;;25.38;17.38;;;9.20;99.90;;;;;;5141934;27;20078;-74
2021/12/17 11:34:18;;;;;;;26.17;16.80;;;9.30;99.90;;;;;;5108281;28;20051;-74
2021/12/17 11:36:44;;;;;;;;;;;9.30;99.90;;;;;;5109611;27;20418;-76
2021/12/17 11:39:21;;;;;;;30.52;16.48;;;9.30;99.90;;;;;;5110516;27;19919;-74
2021/12/17 11:42:04;;;;;;;23.42;15.65;;;9.30;99.90;;;;;;5108605;28;20070;-75
2021/12/17 11:44:40;;;;;;;23.38;14.70;;;9.30;99.90;;;;;;5144980;27;20549;-73
2021/12/17 11:47:10;;;;;;;22.95;15.73;;;9.30;99.90;;;;;;5122756;27;20122;-73
2021/12/17 11:49:46;;;;;;;24.65;15.88;;;9.30;99.90;;;;;;5126158;27;20040;-74
2021/12/17 11:52:11;;;;;;;26.52;16.42;;;9.30;99.90;;;;;;5109303;27;20423;-72
2021/12/17 11:54:37;;;;;;;24.55;15.93;;;9.40;99.90;;;;;;5111524;27;20031;-73
2021/12/17 11:57:12;;;;;;;23.42;15.38;;;9.40;99.90;;;;;;5126779;27;20074;-72
2021/12/17 11:59:43;;;;;;;24.80;15.65;;;9.30;99.90;;;;;;5115927;27;20052;-70
2021/12/17 12:02:16;;;;;;;23.83;16.27;;;9.40;99.90;;;;;;5116772;27;20039;-72
2021/12/17 12:04:49;;;;;;;23.55;15.70;;;9.40;99.90;;;;;;5118993;27;20084;-75
2021/12/17 12:07:18;;;;;;;18.90;12.80;;;9.40;99.90;;;;;;5118108;27;20035;-72
2021/12/17 12:09:57;;;;;;;17.80;12.93;;;9.50;99.90;;;;;;5118052;27;20070;-71
2021/12/17 12:12:38;;;;;;;18.25;13.50;;;9.50;99.90;;;;;;5117793;27;20051;-71
2021/12/17 12:15:33;;;;;;;18.85;13.32;;;9.40;99.90;;;;;;5123926;27;20059;-71
2021/12/17 12:18:06;;;;;;;20.08;13.93;;;9.40;99.90;;;;;;5092937;28;20090;-71
2021/12/17 12:20:51;;;;;;;21.20;14.10;;;9.40;99.90;;;;;;5107084;28;20050;-71
2021/12/17 12:23:23;;;;;;;22.92;15.05;;;9.50;99.90;;;;;;5115943;27;20086;-73
2021/12/17 12:26:01;;;;;;;21.58;15.75;;;9.50;99.90;;;;;;5114185;27;20129;-74
2021/12/17 12:28:45;;;;;;;24.38;15.82;;;9.50;99.90;;;;;;5126566;27;20076;-75
2021/12/17 12:31:17;;;;;;;20.83;15.60;;;9.50;99.90;;;;;;5120527;27;20044;-77
2021/12/17 12:34:05;;;;;;;23.50;16.13;;;9.50;99.90;;;;;;5116183;27;20100;-74
2021/12/17 12:36:54;;;;;;;23.38;15.85;;;9.50;99.90;;;;;;5111126;27;20059;-75
2021/12/17 12:39:22;;;;;;;24.40;17.52;;;9.50;99.90;;;;;;5141847;27;20168;-74
2021/12/17 12:42:25;;;;;;;24.73;17.27;;;9.40;99.90;;;;;;5107666;27;20039;-74
2021/12/17 12:44:51;;;;;;;27.23;19.42;;;9.40;99.90;;;;;;5050169;28;20044;-74
2021/12/17 12:47:20;;;;;;;29.53;19.57;;;9.40;99.90;;;;;;5140242;27;20051;-75
2021/12/17 12:49:56;;;;;;;28.50;20.52;;;9.40;99.90;;;;;;5116759;27;20337;-74
2021/12/17 12:52:30;;;;;;;29.73;19.75;;;9.40;99.90;;;;;;5106691;28;20043;-74
2021/12/17 12:54:59;;;;;;;29.58;19.73;;;9.40;99.90;;;;;;5131405;27;20054;-75
2021/12/17 12:57:34;;;;;;;30.48;19.58;;;9.40;99.90;;;;;;5126373;27;20062;-74
2021/12/17 13:00:06;;;;;;;30.80;20.05;;;9.40;99.90;;;;;;5122815;27;20167;-76
2021/12/17 13:02:33;;;;;;;28.83;19.20;;;9.40;99.90;;;;;;5149387;27;20479;-71
2021/12/17 13:04:59;;;;;;;32.22;19.50;;;9.40;99.90;;;;;;5121072;27;20043;-71
2021/12/17 13:07:36;;;;;;;29.98;19.80;;;9.40;99.90;;;;;;5125089;28;20055;-71
2021/12/17 13:10:18;;;;;;;29.88;19.38;;;9.50;99.90;;;;;;5106663;28;20054;-72
2021/12/17 13:12:52;;;;;;;23.90;17.80;;;9.50;99.90;;;;;;5109045;27;20394;-72
2021/12/17 13:24:15;;;;;;;20.52;14.75;;;9.50;99.90;;;;;;5030041;28;20069;-71
2021/12/17 13:26:48;;;;;;;21.35;14.40;;;9.40;99.90;;;;;;5117548;27;20063;-71
2021/12/17 13:29:21;;;;;;;21.17;14.48;;;9.50;99.90;;;;;;5132620;27;20058;-72
2021/12/17 13:32:00;;;;;;;21.17;15.25;;;9.50;99.90;;;;;;5135930;27;20498;-72
2021/12/17 13:34:31;;;;;;;17.17;13.27;;;9.50;99.90;;;;;;5127499;27;20122;-73
2021/12/17 13:36:59;;;;;;;16.90;12.75;;;9.50;99.90;;;;;;5148633;27;20058;-72
2021/12/17 13:39:28;;;;;;;15.05;12.07;;;9.50;99.90;;;;;;5120044;27;20036;-72
2021/12/17 13:41:54;;;;;;;16.20;12.18;;;9.50;99.90;;;;;;5121244;27;20140;-72
2021/12/17 13:44:42;;;;;;;15.88;12.82;;;9.60;99.90;;;;;;5109531;27;20101;-72
2021/12/17 13:47:08;;;;;;;;;;;9.50;99.90;;;;;;5112404;28;20047;-72
2021/12/17 13:49:35;;;;;;;17.92;12.70;;;9.50;99.90;;;;;;5128565;27;19970;-72
2021/12/17 13:52:01;;;;;;;17.52;13.50;;;9.50;99.90;;;;;;5130186;27;20430;-72
2021/12/17 13:54:27;;;;;;;14.93;12.60;;;9.50;99.90;;;;;;5125027;27;20039;-72
2021/12/17 13:57:01;;;;;;;14.88;12.02;;;9.50;99.90;;;;;;5129134;27;20367;-71
2021/12/17 13:59:34;;;;;;;14.68;12.45;;;9.50;99.90;;;;;;5132311;27;20039;-71
2021/12/17 14:02:27;;;;;;;15.00;11.88;;;9.50;99.90;;;;;;5130509;27;20580;-71
2021/12/17 14:05:25;;;;;;;18.13;11.77;;;9.50;99.90;;;;;;5121023;27;20083;-71
2021/12/17 14:07:52;;;;;;;12.65;9.82;;;9.50;99.90;;;;;;5110196;27;20134;-71
2021/12/17 14:10:21;;;;;;;11.85;9.50;;;9.50;99.90;;;;;;5132855;27;20040;-71
2021/12/17 14:12:48;;;;;;;12.85;10.13;;;9.50;99.90;;;;;;5110636;27;20118;-71
2021/12/17 14:15:20;;;;;;;12.40;10.25;;;9.50;99.90;;;;;;5128956;27;20043;-71
2021/12/17 14:17:49;;;;;;;13.18;10.65;;;9.50;99.90;;;;;;5113892;27;20056;-71
2021/12/17 14:20:16;;;;;;;14.13;10.30;;;9.40;99.90;;;;;;5126157;27;20053;-71
2021/12/17 14:22:47;;;;;;;11.73;8.77;;;9.50;99.90;;;;;;5125189;27;20055;-73
2021/12/17 14:25:50;;;;;;;11.70;8.60;;;9.50;99.90;;;;;;5119897;27;20046;-72
2021/12/17 14:28:18;;;;;;;10.82;8.68;;;9.50;99.90;;;;;;5112547;27;20061;-74
2021/12/17 14:31:09;;;;;;;11.30;8.35;;;9.50;99.90;;;;;;5123586;27;20044;-74
2021/12/17 14:33:37;;;;;;;8.27;5.30;;;9.50;99.90;;;;;;5129629;27;20043;-75
2021/12/17 14:36:06;;;;;;;;;;;9.50;99.90;;;;;;5126259;27;20062;-73
2021/12/17 14:38:41;;;;;;;6.88;4.90;;;9.40;99.90;;;;;;5122679;27;19919;-73
2021/12/17 14:41:13;;;;;;;6.22;4.93;;;9.40;99.90;;;;;;5129190;27;20578;-74
2021/12/17 14:43:51;;;;;;;5.68;4.15;;;9.50;99.90;;;;;;5122810;27;20062;-73
2021/12/17 14:49:04;;;;;;;7.00;4.60;;;9.40;99.90;;;;;;5125206;27;19987;-72
2021/12/17 15:04:44;;;;;;;9.53;7.73;;;9.40;99.90;;;;;;5124077;27;20051;-72
2021/12/17 15:07:09;;;;;;;10.83;8.77;;;9.40;99.90;;;;;;5110492;27;20286;-72
2021/12/17 15:09:40;;;;;;;11.32;9.05;;;9.40;99.90;;;;;;5121369;27;20323;-71
2021/12/17 15:12:24;;;;;;;11.18;9.15;;;9.40;99.90;;;;;;5124448;27;20054;-72
2021/12/17 15:14:50;;;;;;;13.48;10.00;;;9.40;99.90;;;;;;5128867;27;20051;-72
2021/12/17 15:17:16;;;;;;;14.90;10.57;;;9.50;99.90;;;;;;5129400;27;20051;-72
2021/12/17 15:19:42;;;;;;;16.92;11.55;;;9.40;99.90;;;;;;5111255;27;20048;-71
2021/12/17 15:22:07;;;;;;;14.60;11.30;;;9.40;99.90;;;;;;5126011;27;20091;-74
2021/12/17 15:24:33;;;;;;;13.77;10.90;;;9.40;99.90;;;;;;5122281;27;20450;-70
2021/12/17 15:26:59;;;;;;;12.77;9.80;;;9.40;99.90;;;;;;5128847;27;20039;-71
2021/12/17 15:29:24;;;;;;;12.82;9.80;;;9.40;99.90;;;;;;5128798;27;20039;-70
2021/12/17 15:31:54;;;;;;;13.35;9.40;;;9.40;99.90;;;;;;5129769;27;20043;-71
2021/12/17 15:34:20;;;;;;;14.00;10.10;;;9.30;99.90;;;;;;5130429;27;20035;-70
2021/12/17 15:36:46;;;;;;;12.00;7.85;;;9.40;99.90;;;;;;5127624;27;20092;-70
2021/12/17 15:39:11;;;;;;;10.82;6.85;;;9.30;99.90;;;;;;5130258;27;20043;-71
2021/12/17 15:41:41;;;;;;;9.20;7.40;;;9.30;99.90;;;;;;5129290;27;20035;-71
2021/12/17 15:44:08;;;;;;;8.55;6.40;;;9.30;99.90;;;;;;5122384;27;20050;-70
2021/12/17 15:46:33;;;;;;;10.05;6.32;;;9.30;99.90;;;;;;5120522;27;20035;-71
2021/12/17 15:48:59;;;;;;;10.63;6.57;;;9.30;99.90;;;;;;5113597;27;20043;-71
2021/12/17 15:51:25;;;;;;;10.30;6.78;;;9.30;99.90;;;;;;5142212;27;20058;-71
2021/12/17 15:53:50;;;;;;;8.65;6.32;;;9.30;99.90;;;;;;5115493;27;20478;-71
2021/12/17 15:56:17;;;;;;;8.37;6.20;;;9.30;99.90;;;;;;5126746;27;20714;-71
2021/12/17 15:58:43;;;;;;;9.00;6.90;;;9.30;99.90;;;;;;5122037;27;20170;-72
2021/12/17 16:01:08;;;;;;;10.65;6.65;;;9.30;99.90;;;;;;5122597;27;20127;-73
2021/12/17 16:03:36;;;;;;;9.15;6.95;;;9.30;99.90;;;;;;5117282;27;20043;-72
2021/12/17 16:06:05;;;;;;;9.40;7.43;;;9.30;99.90;;;;;;5107364;27;20047;-72
2021/12/17 16:08:33;;;;;;;11.48;7.10;;;9.30;99.90;;;;;;5123561;27;20051;-74